Time;durP1;ratioP1;P1;durP2;ratioP2;P2;SDS_P1;SDS_P2;PMS_P1;PMS_P2;Temp;Humidity;BMP_temperature;BMP_pressure;BME280_temperature;BME280_humidity;BME280_pressure;Samples;Min_cycle;Max_cycle;Signal;HPM_P1;HPM_P2
2022/12/07 00:01:32;;;;;;;22.50;15.00;;;;;;;3.27;100.00;100653.98;103404;1293;70306;-71
2022/12/07 00:04:04;;;;;;;23.90;15.50;;;;;;;3.29;100.00;100652.23;103230;1293;72549;-71
2022/12/07 00:06:34;;;;;;;21.90;14.40;;;;;;;3.31;100.00;100650.50;103843;1297;59634;-71
2022/12/07 00:09:01;;;;;;;22.60;14.90;;;;;;;3.32;100.00;100646.19;104257;1299;60891;-71
2022/12/07 00:11:27;;;;;;;23.20;16.10;;;;;;;3.35;100.00;100641.98;103367;1300;74167;-71
2022/12/07 00:13:57;;;;;;;21.90;14.60;;;;;;;3.37;100.00;100638.83;103461;1305;60529;-71
2022/12/07 00:16:29;;;;;;;23.10;15.70;;;;;;;3.39;100.00;100639.55;103931;1298;73284;-71
2022/12/07 00:18:56;;;;;;;23.70;15.20;;;;;;;3.42;100.00;100631.42;104076;1283;61242;-71
2022/12/07 00:21:29;;;;;;;23.70;15.80;;;;;;;3.43;100.00;100627.95;103430;1301;60549;-71
2022/12/07 00:23:56;;;;;;;24.00;16.30;;;;;;;3.45;100.00;100623.77;103800;1294;73003;-71
2022/12/07 00:26:27;;;;;;;24.30;16.60;;;;;;;3.48;100.00;100628.13;103641;1297;68646;-71
2022/12/07 00:28:56;;;;;;;25.50;15.80;;;;;;;3.48;100.00;100624.77;103684;1299;72466;-71
2022/12/07 00:31:29;;;;;;;23.50;16.40;;;;;;;3.50;100.00;100620.90;103386;1297;61051;-71
2022/12/07 00:33:57;;;;;;;26.30;16.90;;;;;;;3.51;100.00;100622.59;103944;1292;60575;-71
2022/12/07 00:36:24;;;;;;;24.00;15.90;;;;;;;3.53;100.00;100620.47;103553;1299;71932;-71
2022/12/07 00:38:54;;;;;;;25.00;16.50;;;;;;;3.55;100.00;100614.40;103378;1301;71364;-71
2022/12/07 00:41:23;;;;;;;24.20;15.90;;;;;;;3.56;100.00;100614.16;103812;1300;70697;-72
2022/12/07 00:43:50;;;;;;;25.90;16.90;;;;;;;3.57;100.00;100610.71;104199;1282;60955;-72
2022/12/07 00:46:18;;;;;;;27.20;16.30;;;;;;;3.58;100.00;100613.06;103449;1299;61616;-71
2022/12/07 00:48:46;;;;;;;24.70;16.50;;;;;;;3.59;100.00;100611.23;103181;1299;73965;-72
2022/12/07 00:51:15;;;;;;;25.60;16.40;;;;;;;3.60;100.00;100609.89;103685;1296;68912;-72
2022/12/07 00:53:41;;;;;;;26.70;17.50;;;;;;;3.63;100.00;100607.73;103344;1293;71242;-71
2022/12/07 00:56:11;;;;;;;24.80;16.10;;;;;;;3.64;100.00;100607.98;103156;1302;60509;-72
2022/12/07 00:58:37;;;;;;;27.30;16.90;;;;;;;3.64;100.00;100604.52;104099;1292;60537;-72
2022/12/07 01:01:06;;;;;;;24.90;16.10;;;;;;;3.63;100.00;100595.80;103354;1300;72267;-72
2022/12/07 01:03:33;;;;;;;24.50;16.40;;;;;;;3.62;100.00;100594.83;103470;1300;70940;-72
2022/12/07 01:05:59;;;;;;;25.20;16.50;;;;;;;3.62;100.00;100597.70;103489;1298;73712;-72
2022/12/07 01:08:27;;;;;;;23.40;16.10;;;;;;;3.62;100.00;100593.48;103583;1299;61008;-72
2022/12/07 01:11:03;;;;;;;23.80;16.00;;;;;;;3.62;100.00;100595.54;103823;1299;59168;-72
2022/12/07 01:13:29;;;;;;;25.80;16.60;;;;;;;3.63;100.00;100588.13;103499;1300;73839;-72
2022/12/07 01:15:59;;;;;;;25.40;16.10;;;;;;;3.63;100.00;100590.04;104079;1299;69352;-72
2022/12/07 01:18:27;;;;;;;24.50;16.50;;;;;;;3.65;100.00;100590.28;103477;1302;72888;-72
2022/12/07 01:21:05;;;;;;;25.30;15.70;;;;;;;3.65;100.00;100591.77;103434;1294;60880;-72
2022/12/07 01:23:33;;;;;;;22.00;15.80;;;;;;;3.65;100.00;100589.02;104196;1293;60420;-73
2022/12/07 01:26:03;;;;;;;22.40;16.10;;;;;;;3.68;100.00;100593.30;103713;1298;73625;-73
2022/12/07 01:28:29;;;;;;;23.40;15.80;;;;;;;3.70;100.00;100591.05;103284;1297;69061;-72
2022/12/07 01:31:04;;;;;;;24.30;15.80;;;;;;;3.70;100.00;100588.95;103183;1302;71350;-72
2022/12/07 01:33:35;;;;;;;22.00;15.50;;;;;;;3.73;100.00;100587.80;104575;1297;59152;-72
2022/12/07 01:36:15;;;;;;;22.00;15.50;;;;;;;3.77;100.00;100583.30;103521;1301;60622;-73
2022/12/07 01:38:43;;;;;;;22.70;16.00;;;;;;;3.81;100.00;100584.73;103438;1299;72292;-72
2022/12/07 01:41:10;;;;;;;20.70;14.30;;;;;;;3.84;100.00;100579.66;103873;1300;69759;-73
2022/12/07 01:43:37;;;;;;;21.50;14.90;;;;;;;3.85;100.00;100578.71;104125;1298;72415;-73
2022/12/07 01:46:04;;;;;;;21.80;14.90;;;;;;;3.86;100.00;100576.52;104039;1299;60774;-73
2022/12/07 01:48:38;;;;;;;23.30;15.70;;;;;;;3.87;100.00;100572.81;104156;1292;60410;-73
2022/12/07 01:51:10;;;;;;;19.00;12.80;;;;;;;3.90;100.00;100573.08;104357;1293;73104;-73
2022/12/07 01:53:44;;;;;;;19.90;15.00;;;;;;;3.90;100.00;100572.85;104167;1294;70872;-73
2022/12/07 01:56:17;;;;;;;19.60;14.10;;;;;;;3.93;100.00;100569.11;104787;1292;220786;-73
2022/12/07 01:58:44;;;;;;;20.00;14.70;;;;;;;3.91;100.00;100565.25;103889;1292;60542;-72
2022/12/07 02:01:11;;;;;;;19.80;14.50;;;;;;;3.94;100.00;100563.41;103974;1297;60568;-72
2022/12/07 02:03:43;;;;;;;20.70;14.90;;;;;;;3.96;100.00;100562.38;104129;1298;73978;-73
2022/12/07 02:06:16;;;;;;;22.20;15.30;;;;;;;3.97;100.00;100559.68;104601;1292;69806;-73
2022/12/07 02:08:43;;;;;;;20.80;15.20;;;;;;;3.98;100.00;100549.23;103787;1298;72505;-73
2022/12/07 02:11:10;;;;;;;21.00;15.40;;;;;;;3.99;100.00;100548.82;103783;1299;60501;-73
2022/12/07 02:13:39;;;;;;;19.30;14.70;;;;;;;3.97;100.00;100552.44;104058;1290;60487;-72
2022/12/07 02:16:18;;;;;;;20.10;14.10;;;;;;;3.95;100.00;100553.52;104404;1297;72633;-73
2022/12/07 02:19:22;;;;;;;20.20;14.80;;;;;;;3.91;100.00;100558.25;103215;1290;70448;-73
2022/12/07 02:21:59;;;;;;;20.30;14.60;;;;;;;3.86;100.00;100556.77;103753;1298;72606;-73
2022/12/07 02:24:35;;;;;;;18.00;13.50;;;;;;;3.85;100.00;100553.14;104115;1284;60591;-72
2022/12/07 02:27:17;;;;;;;18.20;13.60;;;;;;;3.86;100.00;100545.06;103351;1290;60396;-72
2022/12/07 02:29:55;;;;;;;18.10;12.40;;;;;;;3.84;100.00;100546.48;103396;1296;73635;-72
2022/12/07 02:32:33;;;;;;;19.60;13.20;;;;;;;3.84;100.00;100548.05;103971;1297;70778;-72
2022/12/07 02:35:08;;;;;;;17.00;13.10;;;;;;;3.84;100.00;100544.55;104158;1302;71910;-72
2022/12/07 02:37:47;;;;;;;19.40;12.90;;;;;;;3.81;100.00;100538.46;103782;1300;60369;-72
2022/12/07 02:40:29;;;;;;;17.50;12.70;;;;;;;3.80;100.00;100535.61;104385;1293;60367;-72
2022/12/07 02:43:19;;;;;;;18.90;13.50;;;;;;;3.76;100.00;100534.25;103492;1285;72478;-72
2022/12/07 02:45:47;;;;;;;18.50;11.80;;;;;;;3.74;100.00;100532.80;103944;1303;69625;-72
2022/12/07 02:48:16;;;;;;;20.90;13.50;;;;;;;3.73;100.00;100532.41;103908;1296;71253;-73
2022/12/07 02:50:51;;;;;;;19.30;12.90;;;;;;;3.70;100.00;100532.61;104387;1295;61767;-73
2022/12/07 02:53:39;;;;;;;16.90;12.40;;;;;;;3.67;100.00;100531.27;103461;1299;59158;-73
2022/12/07 02:56:27;;;;;;;18.60;12.90;;;;;;;3.63;100.00;100529.92;103683;1300;72840;-72
2022/12/07 02:59:08;;;;;;;18.10;12.50;;;;;;;3.56;100.00;100535.91;104144;1290;70871;-73
2022/12/07 03:02:00;;;;;;;17.10;11.80;;;;;;;3.54;100.00;100536.85;103867;1284;71170;-74
2022/12/07 03:04:59;;;;;;;17.40;12.20;;;;;;;3.51;100.00;100530.27;104101;1300;61304;-74
2022/12/07 03:07:50;;;;;;;19.60;12.50;;;;;;;3.49;100.00;100530.45;104101;1292;60456;-73
2022/12/07 03:10:29;;;;;;;18.20;12.70;;;;;;;3.48;100.00;100532.22;103471;1300;74578;-74
2022/12/07 03:13:17;;;;;;;17.70;12.20;;;;;;;3.52;100.00;100528.61;103188;1289;68841;-73
2022/12/07 03:16:13;;;;;;;19.50;12.70;;;;;;;3.56;100.00;100525.26;104220;1291;71416;-74
2022/12/07 03:18:48;;;;;;;17.30;12.20;;;;;;;3.61;100.00;100527.34;103545;1285;60358;-74
2022/12/07 03:21:20;;;;;;;18.30;11.60;;;;;;;3.65;100.00;100525.92;103221;1301;60612;-74
2022/12/07 03:23:53;;;;;;;15.00;10.40;;;;;;;3.68;100.00;100527.00;103655;1293;72394;-73
2022/12/07 03:26:23;;;;;;;15.80;10.10;;;;;;;3.72;100.00;100523.26;104778;1292;69808;-74
2022/12/07 03:28:55;;;;;;;14.00;9.90;;;;;;;3.73;100.00;100512.23;103391;1297;71528;-74
2022/12/07 03:31:26;;;;;;;14.60;10.30;;;;;;;3.75;100.00;100508.74;103525;1299;60464;-74
2022/12/07 03:34:03;;;;;;;14.90;10.20;;;;;;;3.79;100.00;100502.67;104047;1298;59291;-74
2022/12/07 03:36:49;;;;;;;16.40;10.70;;;;;;;3.78;100.00;100505.36;104037;1295;72709;-74
2022/12/07 03:39:34;;;;;;;15.10;9.90;;;;;;;3.76;100.00;100518.79;103146;1298;69520;-74
2022/12/07 03:42:04;;;;;;;14.30;9.90;;;;;;;3.77;100.00;100513.30;103591;1293;71528;-73
2022/12/07 03:44:32;;;;;;;15.30;9.90;;;;;;;3.78;100.00;100513.08;104619;1292;59787;-73
2022/12/07 03:47:20;;;;;;;14.90;9.30;;;;;;;3.78;100.00;100513.91;103798;1299;60388;-73
2022/12/07 03:49:58;;;;;;;11.20;8.40;;;;;;;3.80;100.00;100510.63;103330;1299;73685;-73
2022/12/07 03:52:40;;;;;;;13.20;8.90;;;;;;;3.79;100.00;100512.11;104070;1301;69588;-73
2022/12/07 03:55:30;;;;;;;13.70;9.00;;;;;;;3.79;100.00;100514.84;103663;1303;71312;-73
2022/12/07 03:58:02;;;;;;;11.00;7.50;;;;;;;3.79;100.00;100517.73;103489;1292;61678;-73
2022/12/07 04:00:29;;;;;;;11.80;7.70;;;;;;;3.79;100.00;100517.91;104015;1291;61783;-73
2022/12/07 04:02:56;;;;;;;13.20;8.00;;;;;;;3.77;100.00;100522.59;103590;1295;73606;-73
2022/12/07 04:05:23;;;;;;;12.90;8.00;;;;;;;3.76;100.00;100523.17;104118;1293;71186;-72
2022/12/07 04:07:50;;;;;;;12.00;7.40;;;;;;;3.74;100.00;100531.60;103508;1292;72441;-72
2022/12/07 04:10:17;;;;;;;12.30;7.80;;;;;;;3.72;100.00;100530.38;103633;1299;61671;-73
2022/12/07 04:12:44;;;;;;;11.90;7.50;;;;;;;3.70;99.98;100530.05;104037;1299;61366;-74
2022/12/07 04:15:10;;;;;;;12.20;7.60;;;;;;;3.65;99.99;100525.02;103882;1294;60579;-73
2022/12/07 04:17:37;;;;;;;12.30;7.70;;;;;;;3.62;99.95;100522.52;103552;1298;70892;-73
2022/12/07 04:20:05;;;;;;;12.20;7.50;;;;;;;3.61;99.98;100528.50;103779;1299;60486;-75
2022/12/07 04:22:31;;;;;;;10.20;6.60;;;;;;;3.58;99.96;100531.25;104089;1294;61061;-73
2022/12/07 04:24:58;;;;;;;12.30;7.40;;;;;;;3.52;99.94;100530.69;103731;1295;61647;-73
2022/12/07 04:27:24;;;;;;;14.50;8.70;;;;;;;3.45;100.00;100534.61;103324;1299;60511;-73
2022/12/07 04:29:51;;;;;;;11.80;7.60;;;;;;;3.43;100.00;100533.44;104225;1290;59371;-73
2022/12/07 04:32:17;;;;;;;15.00;8.30;;;;;;;3.38;100.00;100533.67;103774;1299;58302;-73
2022/12/07 04:34:44;;;;;;;14.40;8.20;;;;;;;3.37;100.00;100526.78;103546;1296;60964;-74
2022/12/07 04:37:10;;;;;;;12.10;7.90;;;;;;;3.35;100.00;100530.59;104006;1292;60446;-73
2022/12/07 04:39:36;;;;;;;13.00;7.90;;;;;;;3.36;100.00;100528.23;103327;1295;60473;-74
2022/12/07 04:42:03;;;;;;;12.70;7.70;;;;;;;3.37;100.00;100533.58;103729;1291;60506;-74
2022/12/07 04:44:30;;;;;;;14.60;8.30;;;;;;;3.37;100.00;100529.02;103747;1300;60435;-74
2022/12/07 04:46:57;;;;;;;13.60;8.30;;;;;;;3.38;100.00;100518.67;103316;1297;61112;-74
2022/12/07 04:49:24;;;;;;;11.30;7.60;;;;;;;3.41;100.00;100522.89;102969;1297;61673;-73
2022/12/07 04:51:51;;;;;;;15.20;9.30;;;;;;;3.41;100.00;100521.51;103427;1284;74151;-74
2022/12/07 04:54:18;;;;;;;14.80;9.10;;;;;;;3.42;100.00;100517.60;103297;1297;70381;-74
2022/12/07 04:56:45;;;;;;;13.80;8.90;;;;;;;3.43;100.00;100512.80;103540;1296;72454;-74
2022/12/07 04:59:12;;;;;;;14.60;8.40;;;;;;;3.42;100.00;100514.06;103631;1291;60530;-74
2022/12/07 05:01:39;;;;;;;13.60;8.60;;;;;;;3.43;100.00;100508.74;104291;1292;58815;-74
2022/12/07 05:04:07;;;;;;;15.30;8.60;;;;;;;3.44;100.00;100510.95;103018;1290;73962;-74
2022/12/07 05:06:34;;;;;;;12.50;8.50;;;;;;;3.45;100.00;100512.59;103475;1283;70860;-74
2022/12/07 05:09:01;;;;;;;12.00;8.40;;;;;;;3.45;100.00;100516.98;103455;1297;71782;-74
2022/12/07 05:11:40;;;;;;;14.10;9.00;;;;;;;3.47;99.98;100517.17;103756;1302;60998;-74
2022/12/07 05:14:20;;;;;;;13.50;8.60;;;;;;;3.47;99.88;100512.04;103355;1299;60528;-73
2022/12/07 05:16:50;;;;;;;13.60;7.90;;;;;;;3.49;99.78;100514.92;104173;1297;72284;-73
2022/12/07 05:19:18;;;;;;;14.00;7.80;;;;;;;3.46;99.53;100509.86;103711;1299;69806;-73
2022/12/07 05:21:45;;;;;;;13.00;7.20;;;;;;;3.45;99.66;100513.27;103038;1299;72471;-73
2022/12/07 05:24:14;;;;;;;13.10;7.90;;;;;;;3.43;99.65;100515.54;103713;1296;61225;-73
2022/12/07 05:26:40;;;;;;;17.80;8.50;;;;;;;3.46;99.39;100518.10;103751;1299;60582;-73
2022/12/07 05:29:07;;;;;;;13.00;8.30;;;;;;;3.47;99.52;100511.59;103954;1293;72040;-73
2022/12/07 05:31:34;;;;;;;12.70;7.40;;;;;;;3.45;99.50;100516.42;103869;1296;70673;-73
2022/12/07 05:34:01;;;;;;;14.90;7.00;;;;;;;3.41;99.28;100522.89;103710;1293;73477;-74
2022/12/07 05:36:28;;;;;;;13.80;8.40;;;;;;;3.41;99.45;100520.95;103961;1299;60487;-74
2022/12/07 05:38:55;;;;;;;13.40;7.50;;;;;;;3.41;99.07;100518.34;103726;1291;60570;-74
2022/12/07 05:44:06;;;;;;;13.30;7.10;;;;;;;3.38;98.72;100517.22;102917;1299;70141;-74
2022/12/07 05:46:33;;;;;;;12.10;7.40;;;;;;;3.34;98.36;100510.39;103817;1299;60476;-74
2022/12/07 05:49:00;;;;;;;11.10;6.60;;;;;;;3.32;98.44;100505.36;103585;1291;61004;-74
2022/12/07 05:51:27;;;;;;;15.30;8.00;;;;;;;3.32;98.29;100505.91;104165;1283;59276;-74
2022/12/07 05:53:53;;;;;;;15.10;8.10;;;;;;;3.30;98.28;100504.80;103012;1301;60581;-74
2022/12/07 05:56:20;;;;;;;13.90;7.70;;;;;;;3.26;98.18;100513.89;103863;1293;60596;-74
2022/12/07 06:01:32;;;;;;;12.40;7.50;;;;;;;3.21;98.61;100512.36;103647;1286;61721;-73
2022/12/07 06:03:58;;;;;;;13.70;7.40;;;;;;;3.20;98.46;100511.74;103548;1299;61026;-74
2022/12/07 06:06:25;;;;;;;13.90;7.50;;;;;;;3.18;98.44;100513.20;103444;1287;60429;-73
2022/12/07 06:08:51;;;;;;;10.40;6.90;;;;;;;3.17;98.62;100509.55;104093;1293;60361;-73
2022/12/07 06:14:03;;;;;;;13.80;7.10;;;;;;;3.18;99.06;100521.58;104120;1293;61487;-73
2022/12/07 06:16:29;;;;;;;14.30;7.20;;;;;;;3.15;98.86;100515.14;103370;1292;60571;-73
2022/12/07 06:18:56;;;;;;;13.70;7.60;;;;;;;3.18;98.85;100518.64;103644;1294;61386;-73
2022/12/07 06:21:22;;;;;;;13.00;7.00;;;;;;;3.20;98.57;100515.73;103174;1292;69907;-74
2022/12/07 06:23:49;;;;;;;14.60;7.90;;;;;;;3.21;98.48;100511.88;103721;1289;60493;-74
2022/12/07 06:26:15;;;;;;;13.70;7.30;;;;;;;3.25;98.53;100512.59;103666;1285;58624;-74
2022/12/07 06:28:42;;;;;;;13.10;7.80;;;;;;;3.25;98.27;100513.27;104909;1287;59357;-74
2022/12/07 06:31:09;;;;;;;12.50;6.90;;;;;;;3.25;98.36;100512.08;103698;1299;59345;-75
2022/12/07 06:33:40;;;;;;;13.70;7.40;;;;;;;3.23;98.11;100516.77;104113;1291;70218;-75
2022/12/07 06:36:07;;;;;;;12.80;7.80;;;;;;;3.23;97.72;100515.84;103663;1299;71492;-75
2022/12/07 06:38:33;;;;;;;11.80;6.40;;;;;;;3.26;97.94;100512.67;103775;1291;61396;-74
2022/12/07 06:41:00;;;;;;;11.10;6.70;;;;;;;3.26;97.74;100516.18;104231;1295;60685;-74
2022/12/07 06:43:27;;;;;;;11.60;6.80;;;;;;;3.25;97.90;100510.83;104018;1290;60428;-74
2022/12/07 06:45:53;;;;;;;10.70;5.70;;;;;;;3.23;97.78;100515.73;104863;1287;69833;-74
2022/12/07 06:48:20;;;;;;;11.60;6.00;;;;;;;3.19;97.87;100519.17;104108;1291;71473;-73
2022/12/07 06:50:47;;;;;;;10.20;6.30;;;;;;;3.14;97.99;100520.70;103723;1289;60900;-74
2022/12/07 06:53:20;;;;;;;12.20;5.50;;;;;;;3.13;98.25;100521.12;103931;1288;60251;-76
2022/12/07 06:55:46;;;;;;;8.50;4.80;;;;;;;3.16;97.95;100518.08;103477;1296;73844;-73
2022/12/07 06:58:13;;;;;;;9.30;4.40;;;;;;;3.20;97.96;100512.30;104007;1281;60413;-73
2022/12/07 07:00:39;;;;;;;8.60;4.80;;;;;;;3.19;97.96;100518.50;103607;1297;60404;-73
2022/12/07 07:03:06;;;;;;;10.20;4.70;;;;;;;3.20;97.95;100515.77;104436;1299;58509;-73
2022/12/07 07:05:32;;;;;;;10.80;4.90;;;;;;;3.19;97.83;100516.08;104052;1293;60674;-74
2022/12/07 07:07:58;;;;;;;6.90;3.90;;;;;;;3.19;97.54;100515.33;104522;1294;60947;-74
2022/12/07 07:10:45;;;;;;;8.30;3.70;;;;;;;3.17;97.43;100519.38;103696;1292;71789;-73
2022/12/07 07:13:11;;;;;;;7.10;4.00;;;;;;;3.16;97.56;100519.98;103907;1292;59600;-74
2022/12/07 07:15:38;;;;;;;8.60;3.90;;;;;;;3.17;97.83;100515.40;103486;1301;60554;-73
2022/12/07 07:18:05;;;;;;;9.30;3.80;;;;;;;3.16;97.80;100518.93;103502;1295;61693;-73
2022/12/07 07:20:33;;;;;;;7.50;3.60;;;;;;;3.12;97.91;100525.23;103660;1294;73879;-73
2022/12/07 07:23:00;;;;;;;8.20;4.00;;;;;;;3.07;98.08;100527.41;104850;1291;70024;-73
2022/12/07 07:25:26;;;;;;;6.80;3.80;;;;;;;3.04;98.31;100532.39;103681;1293;60407;-73
2022/12/07 07:27:52;;;;;;;7.20;3.40;;;;;;;3.04;98.48;100537.08;103440;1293;60835;-73
2022/12/07 07:30:19;;;;;;;7.60;3.60;;;;;;;3.00;98.60;100534.58;103811;1299;60792;-73
2022/12/07 07:32:46;;;;;;;8.60;3.60;;;;;;;2.98;98.59;100537.92;104200;1297;60252;-73
2022/12/07 07:35:13;;;;;;;8.50;3.20;;;;;;;2.98;98.70;100541.29;103734;1292;61751;-73
2022/12/07 07:37:40;;;;;;;9.60;3.40;;;;;;;2.98;98.69;100544.97;102875;1294;71052;-73
2022/12/07 07:40:09;;;;;;;8.00;3.70;;;;;;;2.97;98.84;100543.22;103337;1302;60923;-75
2022/12/07 07:42:35;;;;;;;9.00;3.60;;;;;;;2.96;98.93;100547.69;104507;1299;60518;-74
2022/12/07 07:45:02;;;;;;;9.30;3.40;;;;;;;2.95;98.75;100547.42;103209;1291;72131;-73
2022/12/07 07:47:29;;;;;;;7.00;3.10;;;;;;;2.97;98.83;100550.59;103670;1291;69705;-74
2022/12/07 07:49:56;;;;;;;7.20;3.00;;;;;;;3.00;98.85;100549.11;103651;1294;61294;-73
2022/12/07 07:52:23;;;;;;;9.90;3.70;;;;;;;3.00;98.86;100548.92;103369;1285;61337;-74
2022/12/07 07:54:49;;;;;;;6.60;3.30;;;;;;;3.02;98.71;100545.93;103446;1294;61390;-72
2022/12/07 07:57:17;;;;;;;11.90;3.40;;;;;;;3.02;98.75;100546.29;103156;1299;61242;-73
2022/12/07 07:59:43;;;;;;;7.00;3.30;;;;;;;3.03;98.45;100548.34;104595;1293;71388;-72
2022/12/07 08:02:18;;;;;;;5.90;2.80;;;;;;;3.06;98.35;100552.63;104121;1298;61354;-73
2022/12/07 08:04:46;;;;;;;5.50;2.40;;;;;;;3.05;98.35;100551.27;103662;1293;61424;-74
2022/12/07 08:07:14;;;;;;;7.60;2.70;;;;;;;3.05;98.30;100552.52;102868;1299;61398;-74
2022/12/07 08:09:41;;;;;;;5.00;2.10;;;;;;;3.04;98.56;100555.09;103617;1293;74704;-73
2022/12/07 08:12:08;;;;;;;8.30;2.60;;;;;;;3.05;98.57;100551.70;103518;1299;69727;-73
2022/12/07 08:14:34;;;;;;;5.70;2.30;;;;;;;3.05;98.58;100552.20;103294;1302;72023;-74
2022/12/07 08:17:01;;;;;;;8.20;2.40;;;;;;;3.03;98.87;100554.45;103392;1291;61460;-74
2022/12/07 08:19:28;;;;;;;6.70;2.40;;;;;;;3.03;99.00;100552.50;104582;1294;61233;-74
2022/12/07 08:21:55;;;;;;;5.90;2.40;;;;;;;3.05;98.93;100558.17;103469;1297;61274;-73
2022/12/07 08:24:23;;;;;;;8.50;3.10;;;;;;;3.08;98.95;100555.11;103224;1285;69970;-73
2022/12/07 08:26:50;;;;;;;4.70;2.00;;;;;;;3.11;98.81;100557.64;102921;1301;72410;-73
2022/12/07 08:29:17;;;;;;;7.40;2.20;;;;;;;3.12;98.70;100551.08;103437;1293;61308;-74
2022/12/07 08:31:43;;;;;;;6.10;2.40;;;;;;;3.17;98.52;100549.65;103558;1293;61290;-72
2022/12/07 08:34:11;;;;;;;4.90;1.70;;;;;;;3.17;98.26;100557.78;103128;1294;74948;-73
2022/12/07 08:36:38;;;;;;;4.10;1.80;;;;;;;3.19;98.10;100558.71;104206;1288;70000;-73
2022/12/07 08:39:04;;;;;;;4.80;1.90;;;;;;;3.19;98.02;100557.46;104090;1299;61727;-73
2022/12/07 08:41:51;;;;;;;4.70;2.00;;;;;;;3.23;98.11;100555.16;103275;1293;61357;-72
2022/12/07 08:44:17;;;;;;;6.80;2.00;;;;;;;3.24;98.01;100551.75;102880;1294;59345;-72
2022/12/07 08:47:02;;;;;;;6.50;2.00;;;;;;;3.27;97.76;100555.77;103177;1294;63246;-73
2022/12/07 08:49:37;;;;;;;5.90;1.90;;;;;;;3.30;97.44;100566.89;103263;1301;69639;-73
2022/12/07 08:52:05;;;;;;;4.70;1.80;;;;;;;3.34;97.25;100561.09;103405;1291;70514;-71
2022/12/07 08:54:34;;;;;;;4.30;1.80;;;;;;;3.35;97.18;100565.95;103454;1299;61389;-72
2022/12/07 08:57:00;;;;;;;5.40;1.80;;;;;;;3.35;97.01;100567.63;104713;1298;61317;-72
2022/12/07 08:59:28;;;;;;;4.40;1.90;;;;;;;3.38;97.20;100565.29;103162;1294;61427;-72
2022/12/07 09:01:54;;;;;;;4.90;1.80;;;;;;;3.41;96.96;100568.16;103252;1293;69630;-73
2022/12/07 09:04:21;;;;;;;4.40;1.70;;;;;;;3.46;96.89;100567.08;103358;1301;62065;-74
2022/12/07 09:06:47;;;;;;;5.80;1.70;;;;;;;3.49;96.88;100568.41;103646;1298;61217;-73
2022/12/07 09:09:15;;;;;;;6.30;1.90;;;;;;;3.50;96.57;100568.66;103117;1293;61342;-74
2022/12/07 09:11:41;;;;;;;6.40;1.80;;;;;;;3.51;96.57;100567.34;103712;1299;73137;-73
2022/12/07 09:14:08;;;;;;;6.90;2.00;;;;;;;3.56;96.75;100565.35;104183;1283;70901;-73
2022/12/07 09:16:35;;;;;;;5.00;1.70;;;;;;;3.60;96.51;100570.23;103432;1301;71784;-73
2022/12/07 09:19:01;;;;;;;6.10;1.90;;;;;;;3.64;96.27;100574.07;103380;1294;62902;-72
2022/12/07 09:21:28;;;;;;;4.90;1.90;;;;;;;3.64;96.07;100571.29;103315;1296;61426;-71
2022/12/07 09:23:54;;;;;;;6.40;1.70;;;;;;;3.65;96.21;100568.36;103168;1294;62059;-73
2022/12/07 09:26:21;;;;;;;5.60;1.70;;;;;;;3.68;95.96;100571.27;103462;1291;62579;-73
2022/12/07 09:28:47;;;;;;;5.20;1.40;;;;;;;3.63;95.49;100577.11;103572;1299;61263;-72
2022/12/07 09:31:13;;;;;;;5.60;1.40;;;;;;;3.63;95.46;100566.09;103744;1292;61375;-72
2022/12/07 09:33:58;;;;;;;4.90;1.60;;;;;;;3.64;95.17;100569.02;104418;1287;59512;-73
2022/12/07 09:36:27;;;;;;;6.40;1.60;;;;;;;3.65;95.23;100560.52;103416;1294;74840;-73
2022/12/07 09:38:53;;;;;;;4.00;1.30;;;;;;;3.66;94.73;100555.33;103270;1292;71576;-73
2022/12/07 09:41:22;;;;;;;4.40;1.30;;;;;;;3.69;94.71;100554.06;103350;1293;72524;-73
2022/12/07 09:43:50;;;;;;;2.80;1.00;;;;;;;3.70;94.24;100559.23;103579;1303;62560;-73
2022/12/07 09:46:19;;;;;;;4.90;1.40;;;;;;;3.67;93.46;100557.40;103656;1299;61265;-73
2022/12/07 09:48:49;;;;;;;2.80;1.10;;;;;;;3.73;93.10;100561.61;103614;1299;73099;-72
2022/12/07 09:51:20;;;;;;;3.60;1.10;;;;;;;3.77;92.83;100557.79;103405;1296;69944;-73
2022/12/07 09:53:53;;;;;;;5.50;1.00;;;;;;;3.86;92.55;100558.52;104338;1287;72876;-72
2022/12/07 09:56:22;;;;;;;3.60;1.30;;;;;;;3.92;91.89;100558.71;103001;1293;61529;-73
2022/12/07 09:58:50;;;;;;;4.80;1.20;;;;;;;4.02;91.66;100555.52;103375;1291;61359;-73
2022/12/07 10:01:21;;;;;;;3.50;1.10;;;;;;;4.11;91.05;100554.62;103171;1298;73157;-73
2022/12/07 10:04:17;;;;;;;5.10;1.30;;;;;;;4.20;90.80;100553.08;103451;1297;69845;-72
2022/12/07 10:06:44;;;;;;;5.80;1.10;;;;;;;4.29;90.09;100549.61;103205;1298;72170;-74
2022/12/07 10:09:16;;;;;;;4.30;1.00;;;;;;;4.37;90.14;100546.42;104307;1299;61288;-72
2022/12/07 10:12:05;;;;;;;4.50;1.40;;;;;;;4.42;89.52;100546.59;103204;1299;61644;-73
2022/12/07 10:14:34;;;;;;;5.60;1.40;;;;;;;4.48;89.82;100543.73;103466;1294;72126;-73
2022/12/07 10:17:35;;;;;;;5.10;1.20;;;;;;;4.55;88.71;100547.66;103716;1292;71142;-73
2022/12/07 10:20:22;;;;;;;5.00;1.20;;;;;;;4.67;88.14;100549.92;102953;1301;72888;-72
2022/12/07 10:23:01;;;;;;;3.00;0.90;;;;;;;4.81;88.19;100549.52;103239;1299;61276;-73
2022/12/07 10:25:33;;;;;;;3.00;1.00;;;;;;;4.91;87.72;100552.13;103183;1293;61806;-73
2022/12/07 10:28:17;;;;;;;2.50;0.80;;;;;;;4.87;86.19;100540.21;103921;1299;75072;-73
2022/12/07 10:30:56;;;;;;;2.60;0.60;;;;;;;4.81;86.05;100543.65;103858;1297;69561;-73
2022/12/07 10:33:37;;;;;;;4.00;1.00;;;;;;;4.77;86.25;100544.73;103285;1291;71260;-73
2022/12/07 10:36:32;;;;;;;3.40;0.90;;;;;;;4.76;86.42;100547.31;103650;1292;61269;-73
2022/12/07 10:39:20;;;;;;;3.80;1.00;;;;;;;4.63;86.46;100540.44;103092;1301;61267;-72
2022/12/07 10:42:01;;;;;;;3.70;1.10;;;;;;;4.62;87.24;100541.41;103045;1300;74419;-73
2022/12/07 10:44:33;;;;;;;3.40;0.70;;;;;;;4.58;87.11;100538.42;103202;1283;70694;-72
2022/12/07 10:47:18;;;;;;;3.70;1.20;;;;;;;4.53;87.30;100541.69;103568;1294;71406;-73
2022/12/07 10:50:05;;;;;;;3.60;1.20;;;;;;;4.51;88.28;100536.08;104397;1299;61253;-74
2022/12/07 10:52:50;;;;;;;4.50;1.10;;;;;;;4.52;88.79;100537.59;103213;1283;61286;-73
2022/12/07 10:55:47;;;;;;;3.70;1.30;;;;;;;4.54;89.22;100531.98;103580;1299;73504;-73
2022/12/07 10:58:45;;;;;;;4.60;1.20;;;;;;;4.51;89.36;100530.48;103196;1291;69782;-73
2022/12/07 11:01:29;;;;;;;5.00;1.30;;;;;;;4.39;89.58;100531.73;103957;1299;70739;-73
2022/12/07 11:04:15;;;;;;;5.70;1.20;;;;;;;4.32;90.23;100524.30;103835;1299;61367;-73
2022/12/07 11:07:09;;;;;;;5.40;1.40;;;;;;;4.29;90.55;100528.42;104035;1293;61210;-73
2022/12/07 11:10:06;;;;;;;7.00;1.40;;;;;;;4.28;91.21;100520.16;103938;1293;73808;-73
2022/12/07 11:13:07;;;;;;;3.90;1.00;;;;;;;4.26;91.30;100517.16;102926;1286;70628;-73
2022/12/07 11:15:51;;;;;;;3.70;1.10;;;;;;;4.23;90.64;100506.90;103463;1294;70277;-73
2022/12/07 11:18:53;;;;;;;4.50;1.10;;;;;;;4.28;90.85;100515.08;103444;1299;61212;-73
2022/12/07 11:21:35;;;;;;;4.90;1.00;;;;;;;4.32;91.08;100521.35;103270;1291;61403;-72
2022/12/07 11:24:14;;;;;;;4.30;1.10;;;;;;;4.34;90.84;100521.02;103278;1299;73108;-72
2022/12/07 11:26:53;;;;;;;2.60;0.90;;;;;;;4.37;90.70;100515.27;104281;1290;70053;-72
2022/12/07 11:29:36;;;;;;;3.80;0.90;;;;;;;4.38;90.61;100508.02;103073;1291;72461;-71
2022/12/07 11:32:21;;;;;;;4.80;0.90;;;;;;;4.37;90.21;100511.63;103172;1293;61376;-72
2022/12/07 11:35:26;;;;;;;5.00;1.20;;;;;;;4.28;89.01;100510.16;103386;1294;61479;-74
2022/12/07 11:38:00;;;;;;;2.60;0.70;;;;;;;4.24;89.04;100519.26;103436;1294;74644;-73
2022/12/07 11:40:36;;;;;;;4.00;1.20;;;;;;;4.16;88.51;100506.04;103131;1299;69530;-74
2022/12/07 11:43:27;;;;;;;3.80;0.70;;;;;;;4.09;88.19;100501.23;103352;1299;71153;-73
2022/12/07 11:46:08;;;;;;;2.90;0.70;;;;;;;3.99;88.68;100503.15;104210;1292;61327;-73